createdAt,value
2018-10-04T00:00:03.046Z,101687.66
2018-10-04T00:02:30.860Z,101681.66
2018-10-04T00:04:58.671Z,101683.40
2018-10-04T00:07:26.451Z,101684.31
2018-10-04T00:09:54.363Z,101677.52
2018-10-04T00:12:22.203Z,101679.81
2018-10-04T00:14:50.030Z,101683.98
2018-10-04T00:17:17.827Z,101682.20
2018-10-04T00:19:45.628Z,101688.99
2018-10-04T00:22:13.437Z,101688.38
2018-10-04T00:24:41.272Z,101687.06
2018-10-04T00:27:09.064Z,101692.05
2018-10-04T00:29:36.964Z,101691.09
2018-10-04T00:32:04.862Z,101692.31
2018-10-04T00:34:32.588Z,101684.23
2018-10-04T00:37:00.444Z,101691.91
2018-10-04T00:39:28.251Z,101685.92
2018-10-04T00:41:56.026Z,101695.95
2018-10-04T00:44:23.760Z,101693.78
2018-10-04T00:46:51.556Z,101693.14
2018-10-04T00:49:19.389Z,101698.44
2018-10-04T00:51:47.252Z,101696.56
2018-10-04T00:54:15.031Z,101695.23
2018-10-04T00:56:42.806Z,101692.66
2018-10-04T00:59:10.554Z,101692.34
2018-10-04T01:01:38.392Z,101694.06
2018-10-04T01:04:06.184Z,101690.32
2018-10-04T01:06:33.963Z,101684.37
2018-10-04T01:09:01.894Z,101689.34
2018-10-04T01:11:29.652Z,101691.59
2018-10-04T01:13:57.492Z,101690.09
2018-10-04T01:16:25.313Z,101689.91
2018-10-04T01:18:56.211Z,101690.60
2018-10-04T01:21:24.133Z,101684.52
2018-10-04T01:23:52.796Z,101687.64
2018-10-04T01:26:20.969Z,101680.70
2018-10-04T01:28:49.379Z,101680.53
2018-10-04T01:31:17.751Z,101681.07
2018-10-04T01:33:45.710Z,101684.66
2018-10-04T01:36:13.588Z,101682.97
2018-10-04T01:38:41.436Z,101681.61
2018-10-04T01:41:09.314Z,101678.75
2018-10-04T01:43:37.252Z,101675.67
2018-10-04T01:46:05.364Z,101673.27
2018-10-04T01:48:33.245Z,101672.94
2018-10-04T01:51:01.131Z,101676.03
2018-10-04T01:53:28.929Z,101673.98
2018-10-04T01:55:56.764Z,101676.52
2018-10-04T01:58:24.581Z,101674.68
2018-10-04T02:00:52.411Z,101679.05
2018-10-04T02:03:20.320Z,101671.43
2018-10-04T02:05:48.164Z,101676.70
2018-10-04T02:08:16.088Z,101671.28
2018-10-04T02:10:43.909Z,101678.05
2018-10-04T02:13:11.739Z,101683.99
2018-10-04T02:15:39.524Z,101685.02
2018-10-04T02:18:07.293Z,101687.56
2018-10-04T02:20:35.156Z,101682.50
2018-10-04T02:23:02.953Z,101689.27
2018-10-04T02:25:31.027Z,101684.03
2018-10-04T02:27:58.831Z,101684.89
2018-10-04T02:30:26.644Z,101692.17
2018-10-04T02:32:54.399Z,101686.91
2018-10-04T02:35:22.282Z,101687.78
2018-10-04T02:37:50.038Z,101689.63
2018-10-04T02:40:17.832Z,101689.45
2018-10-04T02:42:45.619Z,101688.80
2018-10-04T02:45:13.444Z,101685.57
2018-10-04T02:47:41.305Z,101690.98
2018-10-04T02:50:09.156Z,101680.83
2018-10-04T02:52:36.970Z,101688.45
2018-10-04T02:55:11.413Z,101687.78
2018-10-04T02:57:39.487Z,101689.80
2018-10-04T03:00:07.266Z,101687.09
2018-10-04T03:02:35.048Z,101695.22
2018-10-04T03:05:02.907Z,101687.92
2018-10-04T03:07:30.686Z,101684.20
2018-10-04T03:09:58.520Z,101687.77
2018-10-04T03:12:26.448Z,101680.66
2018-10-04T03:14:54.610Z,101675.08
2018-10-04T03:17:22.459Z,101676.77
2018-10-04T03:19:52.740Z,101678.13
2018-10-04T03:22:20.577Z,101686.26
2018-10-04T03:24:48.370Z,101685.91
2018-10-04T03:27:16.180Z,101678.97
2018-10-04T03:29:43.936Z,101683.88
2018-10-04T03:32:11.772Z,101683.53
2018-10-04T03:34:39.580Z,101684.20
2018-10-04T03:37:07.420Z,101686.23
2018-10-04T03:39:35.225Z,101681.83
2018-10-04T03:42:03.024Z,101679.81
2018-10-04T03:44:30.863Z,101680.64
2018-10-04T03:46:58.660Z,101676.25
2018-10-04T03:49:26.458Z,101678.13
2018-10-04T03:51:54.180Z,101683.37
2018-10-04T03:54:22.020Z,101679.64
2018-10-04T03:56:49.840Z,101682.33
2018-10-04T03:59:17.636Z,101689.97
2018-10-04T04:01:48.573Z,101687.44
2018-10-04T04:04:16.464Z,101685.55
2018-10-04T04:06:44.260Z,101687.08
2018-10-04T04:09:12.751Z,101681.83
2018-10-04T04:11:40.984Z,101688.08
2018-10-04T04:14:08.632Z,101684.20
2018-10-04T04:16:36.486Z,101689.08
2018-10-04T04:19:04.407Z,101692.83
2018-10-04T04:21:32.241Z,101688.75
2018-10-04T04:24:00.056Z,101686.74
2018-10-04T04:26:27.951Z,101686.57
2018-10-04T04:28:57.987Z,101687.57
2018-10-04T04:31:25.816Z,101686.38
2018-10-04T04:33:53.690Z,101686.39
2018-10-04T04:36:21.571Z,101685.19
2018-10-04T04:38:49.486Z,101681.98
2018-10-04T04:41:17.641Z,101691.09
2018-10-04T04:43:45.563Z,101686.34
2018-10-04T04:46:13.600Z,101682.45
2018-10-04T04:48:41.411Z,101691.61
2018-10-04T04:51:09.285Z,101690.57
2018-10-04T04:53:38.407Z,101690.77
2018-10-04T04:56:06.460Z,101692.92
2018-10-04T04:58:34.341Z,101689.55
2018-10-04T05:01:02.192Z,101689.91
2018-10-04T05:03:30.008Z,101690.72
2018-10-04T05:05:57.820Z,101690.06
2018-10-04T05:08:25.629Z,101700.39
2018-10-04T05:10:53.524Z,101700.37
2018-10-04T05:13:21.315Z,101694.13
2018-10-04T05:15:49.154Z,101697.80
2018-10-04T05:18:16.997Z,101697.98
2018-10-04T05:20:44.888Z,101691.41
2018-10-04T05:23:12.683Z,101690.20
2018-10-04T05:25:40.544Z,101698.46
2018-10-04T05:28:08.385Z,101692.91
2018-10-04T05:30:36.195Z,101695.27
2018-10-04T05:33:04.039Z,101691.55
2018-10-04T05:35:31.896Z,101695.78
2018-10-04T05:37:59.716Z,101686.98
2018-10-04T05:40:27.620Z,101680.39
2018-10-04T05:42:55.446Z,101687.66
2018-10-04T05:45:23.277Z,101693.05
2018-10-04T05:47:51.060Z,101680.20
2018-10-04T05:50:18.863Z,101681.58
2018-10-04T05:52:46.701Z,101675.83
2018-10-04T05:55:15.070Z,101676.20
2018-10-04T05:57:42.920Z,101682.27
2018-10-04T06:00:41.275Z,101682.61
2018-10-04T06:03:09.199Z,101681.25
2018-10-04T06:05:37.204Z,101692.61
2018-10-04T06:08:05.161Z,101689.23
2018-10-04T06:10:33.449Z,101691.61
2018-10-04T06:13:01.299Z,101693.14
2018-10-04T06:15:29.280Z,101692.48
2018-10-04T06:17:57.071Z,101701.62
2018-10-04T06:20:26.260Z,101709.08
2018-10-04T06:22:54.096Z,101714.98
2018-10-04T06:25:21.956Z,101717.55
2018-10-04T06:27:49.752Z,101722.29
2018-10-04T06:30:17.605Z,101713.33
2018-10-04T06:32:45.465Z,101714.50
2018-10-04T06:35:13.342Z,101718.58
2018-10-04T06:37:44.687Z,101720.45
2018-10-04T06:40:12.569Z,101724.02
2018-10-04T06:42:40.419Z,101722.66
2018-10-04T06:45:08.248Z,101723.17
2018-10-04T06:47:36.028Z,101724.18
2018-10-04T06:50:04.066Z,101725.19
2018-10-04T06:52:31.851Z,101735.71
2018-10-04T06:54:59.647Z,101734.83
2018-10-04T06:57:27.489Z,101739.39
2018-10-04T06:59:59.816Z,101742.95
2018-10-04T07:02:27.824Z,101742.45
2018-10-04T07:04:55.588Z,101743.61
2018-10-04T07:07:23.425Z,101746.99
2018-10-04T07:09:51.283Z,101745.61
2018-10-04T07:12:19.116Z,101745.43
2018-10-04T07:14:46.929Z,101741.00
2018-10-04T07:17:14.796Z,101738.61
2018-10-04T07:19:42.543Z,101743.83
2018-10-04T07:22:10.435Z,101747.20
2018-10-04T07:24:38.224Z,101747.20
2018-10-04T07:27:06.139Z,101747.67
2018-10-04T07:29:33.924Z,101747.85
2018-10-04T07:32:01.744Z,101750.37
2018-10-04T07:34:29.704Z,101751.67
2018-10-04T07:36:57.514Z,101750.77
2018-10-04T07:39:26.202Z,101752.16
2018-10-04T07:41:57.942Z,101746.84
2018-10-04T07:44:25.895Z,101749.27
2018-10-04T07:46:53.761Z,101755.47
2018-10-04T07:49:21.555Z,101759.03
2018-10-04T07:51:49.395Z,101759.69
2018-10-04T07:54:17.209Z,101759.59
2018-10-04T07:56:45.115Z,101756.16
2018-10-04T07:59:12.796Z,101759.43
2018-10-04T08:01:40.719Z,101762.23
2018-10-04T08:04:08.563Z,101758.18
2018-10-04T08:06:36.644Z,101763.05
2018-10-04T08:09:06.791Z,101764.16
2018-10-04T08:11:34.612Z,101761.87
2018-10-04T08:14:02.361Z,101764.53
2018-10-04T08:16:30.175Z,101766.09
2018-10-04T08:18:58.076Z,101762.62
2018-10-04T08:21:25.876Z,101761.09
2018-10-04T08:23:53.709Z,101763.69
2018-10-04T08:26:21.504Z,101763.22
2018-10-04T08:28:49.332Z,101763.65
2018-10-04T08:31:17.145Z,101759.56
2018-10-04T08:33:44.997Z,101765.06
2018-10-04T08:36:12.816Z,101760.27
2018-10-04T08:38:40.618Z,101755.20
2018-10-04T08:41:08.444Z,101758.64
2018-10-04T08:43:36.210Z,101758.59
2018-10-04T08:46:04.008Z,101760.61
2018-10-04T08:48:31.748Z,101758.27
2018-10-04T08:50:59.524Z,101754.88
2018-10-04T08:53:27.405Z,101748.17
2018-10-04T08:55:55.204Z,101752.95
2018-10-04T08:58:22.968Z,101748.05
2018-10-04T09:00:50.737Z,101743.09
2018-10-04T09:03:19.381Z,101742.27
2018-10-04T09:05:47.903Z,101739.78
2018-10-04T09:08:19.718Z,101743.17
2018-10-04T09:10:47.588Z,101750.00
2018-10-04T09:13:15.385Z,101749.02
2018-10-04T09:15:43.189Z,101744.16
2018-10-04T09:18:11.005Z,101735.37
2018-10-04T09:20:38.864Z,101733.92
2018-10-04T09:23:06.696Z,101738.21
2018-10-04T09:25:34.606Z,101732.41
2018-10-04T09:28:02.704Z,101728.77
2018-10-04T09:30:36.204Z,101730.04
2018-10-04T09:33:04.037Z,101731.42
2018-10-04T09:35:31.868Z,101730.28
2018-10-04T09:37:59.872Z,101728.72
2018-10-04T09:40:27.627Z,101727.88
2018-10-04T09:42:55.386Z,101723.67
2018-10-04T09:45:23.168Z,101718.17
2018-10-04T09:47:55.397Z,101717.63
2018-10-04T09:50:27.890Z,101714.22
2018-10-04T09:52:56.035Z,101715.70
2018-10-04T09:55:23.908Z,101707.52
2018-10-04T09:57:51.773Z,101704.34
2018-10-04T10:00:25.596Z,101706.11
2018-10-04T10:02:54.559Z,101710.70
2018-10-04T10:05:22.307Z,101708.68
2018-10-04T10:07:50.897Z,101706.73
2018-10-04T10:10:18.739Z,101697.45
2018-10-04T10:12:46.775Z,101694.09
2018-10-04T10:15:14.995Z,101695.98
2018-10-04T10:17:42.823Z,101690.19
2018-10-04T10:20:11.231Z,101691.30
2018-10-04T10:22:39.334Z,101688.00
2018-10-04T10:25:07.215Z,101685.82
2018-10-04T10:27:35.080Z,101682.03
2018-10-04T10:30:02.980Z,101678.81
2018-10-04T10:32:34.508Z,101679.97
2018-10-04T10:35:02.439Z,101673.53
2018-10-04T10:37:30.259Z,101679.64
2018-10-04T10:39:58.353Z,101674.52
2018-10-04T10:42:26.076Z,101672.17
2018-10-04T10:44:53.883Z,101670.61
2018-10-04T10:47:21.751Z,101675.31
2018-10-04T10:49:49.495Z,101672.82
2018-10-04T10:52:17.426Z,101672.59
2018-10-04T10:54:45.168Z,101667.57
2018-10-04T10:57:12.963Z,101666.73
2018-10-04T10:59:40.760Z,101660.37
2018-10-04T11:02:08.574Z,101660.81
2018-10-04T11:04:36.415Z,101658.50
2018-10-04T11:07:04.299Z,101655.11
2018-10-04T11:09:32.120Z,101652.18
2018-10-04T11:11:59.931Z,101651.64
2018-10-04T11:14:27.774Z,101643.39
2018-10-04T11:16:55.651Z,101638.41
2018-10-04T11:19:23.604Z,101632.08
2018-10-04T11:21:51.484Z,101621.45
2018-10-04T11:24:19.322Z,101622.81
2018-10-04T11:26:47.152Z,101617.20
2018-10-04T11:29:14.923Z,101619.66
2018-10-04T11:31:42.687Z,101613.52
2018-10-04T11:34:10.508Z,101610.41
2018-10-04T11:36:39.418Z,101609.42
2018-10-04T11:39:09.000Z,101601.84
2018-10-04T11:41:37.788Z,101589.89
2018-10-04T11:44:11.072Z,101590.28
2018-10-04T11:46:38.924Z,101586.73
2018-10-04T11:49:06.934Z,101579.91
2018-10-04T11:51:34.747Z,101575.70
2018-10-04T11:54:02.593Z,101575.34
2018-10-04T11:56:30.434Z,101570.94
2018-10-04T11:59:01.743Z,101567.45
2018-10-04T12:01:29.844Z,101562.73
2018-10-04T12:03:57.656Z,101558.38
2018-10-04T12:06:25.592Z,101564.64
2018-10-04T12:08:53.331Z,101554.24
2018-10-04T12:11:21.131Z,101552.55
2018-10-04T12:13:49.023Z,101546.61
2018-10-04T12:16:16.820Z,101550.47
2018-10-04T12:18:44.660Z,101540.98
2018-10-04T12:21:12.487Z,101540.84
2018-10-04T12:23:40.292Z,101536.19
2018-10-04T12:26:08.111Z,101538.47
2018-10-04T12:28:35.852Z,101540.42
2018-10-04T12:31:03.719Z,101536.81
2018-10-04T12:33:31.407Z,101539.95
2018-10-04T12:35:59.277Z,101535.03
2018-10-04T12:38:27.088Z,101531.66
2018-10-04T12:40:54.871Z,101528.64
2018-10-04T12:43:22.726Z,101534.77
2018-10-04T12:45:50.588Z,101526.42
2018-10-04T12:48:18.438Z,101532.83
2018-10-04T12:50:46.283Z,101518.34
2018-10-04T12:53:14.139Z,101519.74
2018-10-04T12:55:41.940Z,101514.72
2018-10-04T12:58:09.759Z,101511.91
2018-10-04T13:00:37.526Z,101514.37
2018-10-04T13:03:05.324Z,101511.02
2018-10-04T13:05:33.152Z,101506.28
2018-10-04T13:08:00.944Z,101502.92
2018-10-04T13:10:28.780Z,101505.12
2018-10-04T13:12:56.564Z,101495.05
2018-10-04T13:15:24.361Z,101494.77
2018-10-04T13:17:52.125Z,101492.52
2018-10-04T13:20:19.945Z,101490.00
2018-10-04T13:22:47.732Z,101493.57
2018-10-04T13:25:15.648Z,101489.41
2018-10-04T13:27:43.488Z,101494.29
2018-10-04T13:30:11.320Z,101486.73
2018-10-04T13:32:39.117Z,101488.67
2018-10-04T13:35:06.920Z,101489.82
2018-10-04T13:37:34.767Z,101487.84
2018-10-04T13:40:02.536Z,101487.28
2018-10-04T13:42:30.359Z,101476.72
2018-10-04T13:44:58.202Z,101474.50
2018-10-04T13:47:25.965Z,101475.28
2018-10-04T13:49:53.759Z,101470.53
2018-10-04T13:52:21.544Z,101469.42
2018-10-04T13:54:50.014Z,101471.64
2018-10-04T13:57:17.812Z,101461.89
2018-10-04T13:59:45.700Z,101466.01
2018-10-04T14:02:13.484Z,101459.95
2018-10-04T14:04:41.280Z,101461.90
2018-10-04T14:07:09.087Z,101458.58
2018-10-04T14:09:36.920Z,101453.81
2018-10-04T14:12:04.764Z,101456.58
2018-10-04T14:14:32.564Z,101447.40
2018-10-04T14:17:00.360Z,101450.44
2018-10-04T14:19:28.226Z,101446.52
2018-10-04T14:21:56.076Z,101443.23
2018-10-04T14:24:23.848Z,101436.83
2018-10-04T14:26:51.664Z,101430.17
2018-10-04T14:29:19.539Z,101424.64
2018-10-04T14:31:47.388Z,101425.15
2018-10-04T14:34:15.268Z,101421.03
2018-10-04T14:36:42.996Z,101425.46
2018-10-04T14:39:10.881Z,101414.08
2018-10-04T14:41:38.648Z,101410.23
2018-10-04T14:44:06.492Z,101411.62
2018-10-04T14:46:34.336Z,101407.97
2018-10-04T14:49:02.169Z,101403.58
2018-10-04T14:51:29.959Z,101401.88
2018-10-04T14:54:01.532Z,101398.28
2018-10-04T14:56:29.385Z,101404.93
2018-10-04T14:58:57.223Z,101402.16
2018-10-04T15:01:25.000Z,101400.45
2018-10-04T15:03:52.835Z,101400.17
2018-10-04T15:06:20.544Z,101394.95
2018-10-04T15:08:48.343Z,101389.69
2018-10-04T15:11:16.119Z,101390.71
2018-10-04T15:13:43.899Z,101393.75
2018-10-04T15:16:15.378Z,101392.31
2018-10-04T15:18:43.176Z,101398.45
2018-10-04T15:21:11.031Z,101392.37
2018-10-04T15:23:38.809Z,101386.23
2018-10-04T15:26:06.743Z,101383.69
2018-10-04T15:28:34.553Z,101374.54
2018-10-04T15:31:02.453Z,101377.78
2018-10-04T15:33:30.236Z,101374.45
2018-10-04T15:35:58.024Z,101375.05
2018-10-04T15:38:25.927Z,101369.20
2018-10-04T15:40:53.685Z,101373.31
2018-10-04T15:43:21.464Z,101366.32
2018-10-04T15:45:49.255Z,101363.23
2018-10-04T15:48:17.108Z,101360.69
2018-10-04T15:50:44.887Z,101365.89
2018-10-04T15:53:12.728Z,101368.09
2018-10-04T15:55:40.464Z,101366.36
2018-10-04T15:58:08.268Z,101367.12
2018-10-04T16:00:36.143Z,101356.89
2018-10-04T16:03:03.900Z,101358.22
2018-10-04T16:05:31.717Z,101355.94
2018-10-04T16:07:59.508Z,101356.95
2018-10-04T16:10:27.322Z,101350.47
2018-10-04T16:12:55.085Z,101357.38
2018-10-04T16:15:26.555Z,101354.80
2018-10-04T16:17:54.326Z,101348.47
2018-10-04T16:20:22.060Z,101350.05
2018-10-04T16:22:49.829Z,101348.32
2018-10-04T16:25:17.600Z,101341.56
2018-10-04T16:27:47.327Z,101341.27
2018-10-04T16:30:15.843Z,101340.46
2018-10-04T16:32:44.198Z,101346.45
2018-10-04T16:35:12.154Z,101340.86
2018-10-04T16:37:40.661Z,101341.95
2018-10-04T16:40:08.708Z,101339.30
2018-10-04T16:42:36.591Z,101339.41
2018-10-04T16:45:04.490Z,101340.97
2018-10-04T16:47:32.226Z,101340.80
2018-10-04T16:50:00.064Z,101345.61
2018-10-04T16:52:27.881Z,101337.67
2018-10-04T16:54:55.688Z,101339.97
2018-10-04T16:57:23.452Z,101346.93
2018-10-04T16:59:51.322Z,101341.73
2018-10-04T17:02:19.094Z,101345.48
2018-10-04T17:04:46.879Z,101342.44
2018-10-04T17:07:14.752Z,101345.33
2018-10-04T17:09:42.574Z,101340.83
2018-10-04T17:12:10.368Z,101337.73
2018-10-04T17:14:38.144Z,101341.68
2018-10-04T17:17:05.950Z,101334.87
2018-10-04T17:19:33.703Z,101346.76
2018-10-04T17:22:01.468Z,101338.81
2018-10-04T17:24:29.627Z,101338.63
2018-10-04T17:26:57.403Z,101334.97
2018-10-04T17:29:25.251Z,101335.63
2018-10-04T17:31:53.034Z,101341.25
2018-10-04T17:34:20.884Z,101332.55
2018-10-04T17:36:49.459Z,101331.22
2018-10-04T17:39:17.236Z,101335.27
2018-10-04T17:41:45.156Z,101336.64
2018-10-04T17:44:12.953Z,101336.52
2018-10-04T17:46:40.788Z,101336.45
2018-10-04T17:49:08.648Z,101340.16
2018-10-04T17:51:36.435Z,101341.30
2018-10-04T17:54:04.342Z,101349.84
2018-10-04T17:56:32.060Z,101341.94
2018-10-04T17:58:59.800Z,101336.98
2018-10-04T18:01:27.597Z,101339.20
2018-10-04T18:03:55.453Z,101346.40
2018-10-04T18:06:23.291Z,101345.25
2018-10-04T18:08:51.128Z,101344.16
2018-10-04T18:11:19.236Z,101339.48
2018-10-04T18:13:47.182Z,101340.23
2018-10-04T18:16:14.952Z,101335.08
2018-10-04T18:18:42.729Z,101350.76
2018-10-04T18:21:10.700Z,101350.64
2018-10-04T18:23:38.563Z,101347.77
2018-10-04T18:26:06.659Z,101347.14
2018-10-04T18:28:34.484Z,101341.15
2018-10-04T18:31:03.163Z,101344.56
2018-10-04T18:33:30.931Z,101344.41
2018-10-04T18:35:58.744Z,101347.78
2018-10-04T18:38:26.577Z,101346.41
2018-10-04T18:40:54.343Z,101342.81
2018-10-04T18:43:22.179Z,101343.36
2018-10-04T18:45:50.004Z,101346.63
2018-10-04T18:48:17.779Z,101345.66
2018-10-04T18:50:45.600Z,101343.95
2018-10-04T18:53:13.443Z,101344.80
2018-10-04T18:55:41.236Z,101349.42
2018-10-04T18:58:09.008Z,101345.30
2018-10-04T19:00:36.784Z,101348.14
2018-10-04T19:03:04.552Z,101347.83
2018-10-04T19:05:32.531Z,101350.09
2018-10-04T19:08:00.430Z,101351.86
2018-10-04T19:10:28.192Z,101355.28
2018-10-04T19:12:55.945Z,101362.09
2018-10-04T19:15:23.700Z,101365.66
2018-10-04T19:17:51.551Z,101365.52
2018-10-04T19:20:19.385Z,101373.42
2018-10-04T19:22:47.163Z,101369.77
2018-10-04T19:25:15.040Z,101367.11
2018-10-04T19:27:43.063Z,101365.22
2018-10-04T19:30:10.946Z,101378.19
2018-10-04T19:32:38.759Z,101375.80
2018-10-04T19:35:10.031Z,101374.23
2018-10-04T19:37:37.908Z,101371.45
2018-10-04T19:40:05.993Z,101381.16
2018-10-04T19:42:33.860Z,101375.27
2018-10-04T19:45:01.620Z,101376.94
2018-10-04T19:47:29.491Z,101368.04
2018-10-04T19:49:57.320Z,101369.47
2018-10-04T19:52:25.143Z,101376.31
2018-10-04T19:54:52.930Z,101372.24
2018-10-04T19:57:20.752Z,101369.44
2018-10-04T19:59:48.537Z,101375.45
2018-10-04T20:02:16.376Z,101365.37
2018-10-04T20:04:44.084Z,101359.63
2018-10-04T20:07:11.894Z,101352.81
2018-10-04T20:09:39.940Z,101354.06
2018-10-04T20:12:07.688Z,101354.54
2018-10-04T20:14:35.515Z,101360.28
2018-10-04T20:17:03.380Z,101364.58
2018-10-04T20:19:31.523Z,101370.25
2018-10-04T20:21:59.320Z,101367.75
2018-10-04T20:24:27.200Z,101373.44
2018-10-04T20:26:55.017Z,101372.77
2018-10-04T20:29:22.811Z,101368.81
2018-10-04T20:31:50.626Z,101377.16
2018-10-04T20:34:18.351Z,101377.45
2018-10-04T20:36:46.224Z,101369.16
2018-10-04T20:39:13.988Z,101368.23
2018-10-04T20:41:41.799Z,101376.52
2018-10-04T20:44:09.650Z,101365.91
2018-10-04T20:46:37.472Z,101365.92
2018-10-04T20:49:05.336Z,101364.77
2018-10-04T20:51:33.108Z,101360.67
2018-10-04T20:54:00.914Z,101360.46
2018-10-04T20:56:28.738Z,101357.95
2018-10-04T20:58:56.606Z,101350.08
2018-10-04T21:01:24.384Z,101353.95
2018-10-04T21:03:52.316Z,101355.97
2018-10-04T21:06:20.128Z,101348.30
2018-10-04T21:08:47.937Z,101346.72
2018-10-04T21:11:15.753Z,101346.51
2018-10-04T21:13:43.572Z,101347.25
2018-10-04T21:16:11.360Z,101354.28
2018-10-04T21:18:39.192Z,101353.02
2018-10-04T21:21:07.065Z,101345.03
2018-10-04T21:23:34.977Z,101347.45
2018-10-04T21:26:02.869Z,101353.02
2018-10-04T21:28:30.676Z,101359.20
2018-10-04T21:30:58.456Z,101358.05
2018-10-04T21:33:26.252Z,101353.30
2018-10-04T21:36:00.749Z,101358.23
2018-10-04T21:38:28.562Z,101357.30
2018-10-04T21:40:56.456Z,101357.51
2018-10-04T21:43:29.590Z,101356.97
2018-10-04T21:45:57.599Z,101357.67
2018-10-04T21:48:25.396Z,101350.09
2018-10-04T21:50:53.232Z,101346.86
2018-10-04T21:53:20.991Z,101342.73
2018-10-04T21:55:48.853Z,101349.06
2018-10-04T21:58:16.644Z,101338.95
2018-10-04T22:00:50.252Z,101347.22
2018-10-04T22:03:18.017Z,101346.88
2018-10-04T22:05:45.787Z,101349.03
2018-10-04T22:08:13.524Z,101343.29
2018-10-04T22:10:41.354Z,101342.33
2018-10-04T22:13:09.215Z,101345.44
2018-10-04T22:15:36.972Z,101340.95
2018-10-04T22:18:04.980Z,101345.59
2018-10-04T22:20:32.831Z,101347.37
2018-10-04T22:23:00.682Z,101345.27
2018-10-04T22:25:28.441Z,101347.41
2018-10-04T22:27:56.193Z,101351.22
2018-10-04T22:30:23.983Z,101350.13
2018-10-04T22:32:51.698Z,101345.10
2018-10-04T22:35:19.519Z,101343.70
2018-10-04T22:37:47.295Z,101338.47
2018-10-04T22:40:15.068Z,101338.25
2018-10-04T22:42:42.852Z,101344.23
2018-10-04T22:45:10.652Z,101346.11
2018-10-04T22:47:38.501Z,101347.44
2018-10-04T22:50:06.936Z,101332.88
2018-10-04T22:52:34.700Z,101335.49
2018-10-04T22:55:02.504Z,101338.08
2018-10-04T22:57:30.316Z,101333.15
2018-10-04T22:59:58.096Z,101331.70
2018-10-04T23:02:25.929Z,101333.42
2018-10-04T23:04:53.704Z,101325.95
2018-10-04T23:07:21.536Z,101328.04
2018-10-04T23:09:49.304Z,101324.38
2018-10-04T23:12:17.123Z,101322.38
2018-10-04T23:14:44.915Z,101321.50
2018-10-04T23:17:12.739Z,101317.78
2018-10-04T23:19:40.516Z,101315.59
2018-10-04T23:22:08.351Z,101326.34
2018-10-04T23:24:36.268Z,101322.55
2018-10-04T23:27:04.110Z,101320.69
2018-10-04T23:29:31.892Z,101318.44
2018-10-04T23:31:59.798Z,101318.53
2018-10-04T23:34:27.610Z,101321.73
2018-10-04T23:36:55.411Z,101324.45
2018-10-04T23:39:23.160Z,101325.44
2018-10-04T23:41:50.932Z,101328.75
2018-10-04T23:44:18.745Z,101332.24
2018-10-04T23:46:46.495Z,101333.46
2018-10-04T23:49:14.356Z,101322.14
2018-10-04T23:51:42.211Z,101330.16
2018-10-04T23:54:09.993Z,101336.27
2018-10-04T23:56:37.790Z,101334.56
2018-10-04T23:59:05.837Z,101342.55
